createdAt,value
2018-12-01T00:00:29.359Z,8.27
2018-12-01T00:02:57.756Z,8.27
2018-12-01T00:05:26.998Z,8.17
2018-12-01T00:07:55.910Z,8.30
2018-12-01T00:10:24.260Z,9.57
2018-12-01T00:12:52.679Z,10.20
2018-12-01T00:15:22.888Z,8.63
2018-12-01T00:17:51.299Z,8.33
2018-12-01T00:20:20.752Z,8.23
2018-12-01T00:22:49.975Z,9.30
2018-12-01T00:25:18.319Z,7.67
2018-12-01T00:27:46.738Z,7.80
2018-12-01T00:30:17.054Z,8.63
2018-12-01T00:32:46.459Z,8.10
2018-12-01T00:35:14.804Z,7.90
2018-12-01T00:37:43.141Z,9.40
2018-12-01T00:40:18.596Z,8.47
2018-12-01T00:42:46.998Z,8.40
2018-12-01T00:45:20.298Z,8.90
2018-12-01T00:47:52.669Z,8.60
2018-12-01T00:50:21.969Z,9.03
2018-12-01T00:52:50.896Z,7.90
2018-12-01T00:55:19.743Z,6.90
2018-12-01T00:57:48.089Z,7.60
2018-12-01T01:00:19.855Z,8.10
2018-12-01T01:02:52.177Z,8.13
2018-12-01T01:05:21.506Z,7.83
2018-12-01T01:07:49.885Z,8.20
2018-12-01T01:10:18.509Z,7.23
2018-12-01T01:12:46.874Z,8.13
2018-12-01T01:15:15.273Z,7.40
2018-12-01T01:17:43.681Z,7.30
2018-12-01T01:20:13.087Z,8.03
2018-12-01T01:22:43.209Z,8.50
2018-12-01T01:25:12.404Z,8.47
2018-12-01T01:27:40.840Z,9.27
2018-12-01T01:30:14.298Z,7.80
2018-12-01T01:32:42.716Z,8.67
2018-12-01T01:35:11.086Z,7.63
2018-12-01T01:37:39.408Z,7.33
2018-12-01T01:40:09.625Z,8.03
2018-12-01T01:42:37.985Z,9.43
2018-12-01T01:45:10.754Z,8.17
2018-12-01T01:47:39.153Z,8.00
2018-12-01T01:50:09.514Z,7.50
2018-12-01T01:52:37.886Z,7.90
2018-12-01T01:55:07.930Z,6.80
2018-12-01T01:57:36.289Z,9.40
2018-12-01T02:00:09.779Z,7.10
2018-12-01T02:02:38.155Z,9.43
2018-12-01T02:05:06.663Z,7.80
2018-12-01T02:07:35.046Z,7.10
2018-12-01T02:10:03.516Z,8.10
2018-12-01T02:12:31.873Z,7.70
2018-12-01T02:15:00.195Z,8.10
2018-12-01T02:17:28.565Z,8.17
2018-12-01T02:19:57.014Z,8.77
2018-12-01T02:22:25.439Z,7.50
2018-12-01T02:24:53.765Z,8.83
2018-12-01T02:27:22.169Z,8.57
2018-12-01T02:29:50.506Z,9.73
2018-12-01T02:32:18.908Z,8.67
2018-12-01T02:34:47.274Z,8.10
2018-12-01T02:37:15.680Z,7.83
2018-12-01T02:39:44.116Z,8.93
2018-12-01T02:42:12.475Z,8.40
2018-12-01T02:45:05.514Z,8.53
2018-12-01T02:47:34.263Z,8.20
2018-12-01T02:50:03.226Z,8.40
2018-12-01T02:52:31.630Z,8.10
2018-12-01T02:55:00.205Z,7.03
2018-12-01T02:57:28.624Z,7.70
2018-12-01T02:59:57.030Z,8.27
2018-12-01T03:02:25.448Z,8.07
2018-12-01T03:04:54.137Z,8.83
2018-12-01T03:07:22.437Z,8.90
2018-12-01T03:09:50.780Z,7.73
2018-12-01T03:12:19.090Z,8.50
2018-12-01T03:14:47.436Z,8.50
2018-12-01T03:17:15.806Z,7.03
2018-12-01T03:19:44.273Z,7.30
2018-12-01T03:22:12.637Z,6.43
2018-12-01T03:24:41.047Z,6.83
2018-12-01T03:27:09.367Z,6.57
2018-12-01T03:29:37.754Z,7.20
2018-12-01T03:32:06.099Z,7.80
2018-12-01T03:34:34.449Z,8.60
2018-12-01T03:37:02.755Z,8.10
2018-12-01T03:39:31.186Z,8.23
2018-12-01T03:41:59.521Z,9.93
2018-12-01T03:44:27.875Z,9.40
2018-12-01T03:46:56.335Z,10.50
2018-12-01T03:49:24.724Z,9.17
2018-12-01T03:51:53.140Z,10.63
2018-12-01T03:54:21.551Z,10.40
2018-12-01T03:56:49.975Z,10.53
2018-12-01T03:59:18.337Z,10.40
2018-12-01T04:01:46.771Z,9.13
2018-12-01T04:04:15.202Z,9.97
2018-12-01T04:06:43.674Z,10.23
2018-12-01T04:09:17.273Z,9.57
2018-12-01T04:11:45.641Z,9.53
2018-12-01T04:14:14.137Z,10.53
2018-12-01T04:16:42.544Z,9.20
2018-12-01T04:19:10.972Z,9.87
2018-12-01T04:21:39.432Z,9.30
2018-12-01T04:24:07.835Z,10.67
2018-12-01T04:26:36.194Z,9.50
2018-12-01T04:29:04.616Z,8.27
2018-12-01T04:31:33.030Z,9.30
2018-12-01T04:34:01.450Z,9.03
2018-12-01T04:36:29.947Z,9.50
2018-12-01T04:38:58.302Z,9.60
2018-12-01T04:41:26.665Z,10.70
2018-12-01T04:43:55.077Z,10.37
2018-12-01T04:46:23.486Z,8.60
2018-12-01T04:48:51.939Z,8.30
2018-12-01T04:51:20.306Z,7.70
2018-12-01T04:53:48.635Z,9.27
2018-12-01T04:56:16.987Z,7.90
2018-12-01T04:58:45.350Z,8.90
2018-12-01T05:01:13.704Z,7.90
2018-12-01T05:03:42.035Z,7.87
2018-12-01T05:06:10.451Z,7.97
2018-12-01T05:08:38.766Z,7.37
2018-12-01T05:11:07.082Z,7.10
2018-12-01T05:13:35.490Z,6.80
2018-12-01T05:16:03.880Z,6.83
2018-12-01T05:18:32.256Z,7.70
2018-12-01T05:21:00.655Z,8.37
2018-12-01T05:23:29.006Z,7.50
2018-12-01T05:25:57.386Z,9.03
2018-12-01T05:28:25.824Z,7.23
2018-12-01T05:30:54.258Z,6.43
2018-12-01T05:33:22.574Z,6.73
2018-12-01T05:35:51.005Z,7.70
2018-12-01T05:38:19.468Z,6.93
2018-12-01T05:40:47.838Z,6.97
2018-12-01T05:43:16.228Z,8.00
2018-12-01T05:45:44.669Z,7.40
2018-12-01T05:48:13.039Z,7.67
2018-12-01T05:50:41.463Z,7.73
2018-12-01T05:53:09.823Z,6.50
2018-12-01T05:55:38.242Z,7.10
2018-12-01T05:58:06.616Z,7.93
2018-12-01T06:00:34.989Z,7.70
2018-12-01T06:03:03.471Z,7.93
2018-12-01T06:05:31.848Z,8.23
2018-12-01T06:08:00.231Z,8.20
2018-12-01T06:10:28.712Z,7.60
2018-12-01T06:13:00.379Z,9.23
2018-12-01T06:15:29.390Z,9.17
2018-12-01T06:17:57.763Z,8.37
2018-12-01T06:20:26.146Z,7.93
2018-12-01T06:22:54.516Z,8.80
2018-12-01T06:25:23.817Z,8.03
2018-12-01T06:27:52.234Z,8.40
2018-12-01T06:30:20.876Z,9.07
2018-12-01T06:32:50.307Z,8.97
2018-12-01T06:35:18.767Z,8.60
2018-12-01T06:37:47.147Z,7.20
2018-12-01T06:40:16.640Z,7.43
2018-12-01T06:42:45.077Z,7.53
2018-12-01T06:45:14.271Z,6.70
2018-12-01T06:47:42.695Z,6.90
2018-12-01T06:50:15.139Z,7.20
2018-12-01T06:52:43.516Z,7.70
2018-12-01T06:55:13.915Z,6.50
2018-12-01T06:57:43.033Z,8.97
2018-12-01T07:00:14.527Z,8.60
2018-12-01T07:02:43.500Z,10.23
2018-12-01T07:05:12.687Z,8.23
2018-12-01T07:07:41.206Z,8.50
2018-12-01T07:10:13.813Z,7.17
2018-12-01T07:12:44.798Z,7.13
2018-12-01T07:15:15.066Z,7.53
2018-12-01T07:17:43.424Z,7.50
2018-12-01T07:20:11.755Z,7.10
2018-12-01T07:22:40.194Z,7.77
2018-12-01T07:25:08.752Z,7.73
2018-12-01T07:27:37.176Z,6.80
2018-12-01T07:30:11.082Z,6.70
2018-12-01T07:32:39.465Z,7.00
2018-12-01T07:35:08.398Z,7.30
2018-12-01T07:37:36.813Z,7.03
2018-12-01T07:40:13.706Z,8.43
2018-12-01T07:42:42.111Z,10.50
2018-12-01T07:45:13.640Z,9.53
2018-12-01T07:47:42.026Z,7.23
2018-12-01T07:50:12.003Z,9.60
2018-12-01T07:52:40.492Z,8.93
2018-12-01T07:55:08.965Z,9.70
2018-12-01T07:57:37.451Z,10.53
2018-12-01T08:00:11.276Z,10.93
2018-12-01T08:02:39.902Z,10.93
2018-12-01T08:05:09.550Z,11.97
2018-12-01T08:07:37.961Z,13.17
2018-12-01T08:10:12.895Z,11.90
2018-12-01T08:12:41.415Z,11.50
2018-12-01T08:15:11.939Z,13.10
2018-12-01T08:17:40.332Z,11.93
2018-12-01T08:20:10.859Z,15.03
2018-12-01T08:22:39.258Z,12.93
2018-12-01T08:25:17.923Z,12.43
2018-12-01T08:27:48.083Z,13.47
2018-12-01T08:30:19.928Z,12.20
2018-12-01T08:32:48.356Z,13.70
2018-12-01T08:35:16.775Z,13.67
2018-12-01T08:37:45.179Z,12.93
2018-12-01T08:40:15.172Z,12.03
2018-12-01T08:42:43.545Z,13.03
2018-12-01T08:45:11.976Z,12.63
2018-12-01T08:47:40.864Z,11.27
2018-12-01T08:50:11.249Z,11.90
2018-12-01T08:52:39.660Z,10.47
2018-12-01T08:55:10.724Z,12.33
2018-12-01T08:57:39.113Z,10.53
2018-12-01T09:00:17.270Z,10.07
2018-12-01T09:02:46.800Z,9.90
2018-12-01T09:05:15.191Z,10.17
2018-12-01T09:07:43.619Z,10.67
2018-12-01T09:10:12.117Z,8.90
2018-12-01T09:12:40.611Z,9.87
2018-12-01T09:15:12.434Z,11.10
2018-12-01T09:17:41.247Z,11.00
2018-12-01T09:20:12.778Z,11.53
2018-12-01T09:22:45.001Z,12.53
2018-12-01T09:25:15.360Z,10.20
2018-12-01T09:27:43.784Z,10.00
2018-12-01T09:30:14.506Z,10.27
2018-12-01T09:32:42.999Z,11.03
2018-12-01T09:35:11.372Z,10.10
2018-12-01T09:37:39.793Z,9.40
2018-12-01T09:40:10.716Z,9.17
2018-12-01T09:42:39.132Z,9.17
2018-12-01T09:45:18.501Z,6.80
2018-12-01T09:47:48.088Z,8.43
2018-12-01T09:50:16.481Z,6.90
2018-12-01T09:52:46.376Z,6.97
2018-12-01T09:55:17.063Z,6.93
2018-12-01T09:57:46.003Z,6.80
2018-12-01T10:00:16.424Z,7.40
2018-12-01T10:02:45.581Z,6.80
2018-12-01T10:05:15.184Z,7.07
2018-12-01T10:07:43.599Z,6.37
2018-12-01T10:10:14.205Z,8.80
2018-12-01T10:12:42.607Z,6.60
2018-12-01T10:15:23.960Z,5.87
2018-12-01T10:17:52.391Z,7.17
2018-12-01T10:20:22.426Z,6.50
2018-12-01T10:22:50.819Z,6.13
2018-12-01T10:25:20.107Z,6.30
2018-12-01T10:27:48.557Z,6.40
2018-12-01T10:30:18.463Z,5.60
2018-12-01T10:32:47.023Z,6.87
2018-12-01T10:35:17.407Z,6.33
2018-12-01T10:37:47.573Z,6.47
2018-12-01T10:40:15.958Z,5.50
2018-12-01T10:42:44.418Z,5.80
2018-12-01T10:45:15.922Z,5.43
2018-12-01T10:47:44.863Z,7.60
2018-12-01T10:50:15.199Z,6.47
2018-12-01T10:52:43.761Z,6.53
2018-12-01T10:55:23.011Z,6.07
2018-12-01T10:57:52.290Z,4.93
2018-12-01T11:00:26.224Z,5.30
2018-12-01T11:03:59.479Z,5.30
2018-12-01T11:06:28.052Z,4.90
2018-12-01T11:08:56.470Z,5.20
2018-12-01T11:11:24.821Z,4.00
2018-12-01T11:13:53.383Z,4.47
2018-12-01T11:16:21.805Z,4.27
2018-12-01T11:18:50.254Z,4.90
2018-12-01T11:21:18.692Z,3.90
2018-12-01T11:23:47.222Z,3.70
2018-12-01T11:26:15.694Z,4.23
2018-12-01T11:28:44.237Z,3.50
2018-12-01T11:31:12.653Z,3.20
2018-12-01T11:33:41.097Z,4.27
2018-12-01T11:36:09.556Z,3.60
2018-12-01T11:38:37.983Z,3.30
2018-12-01T11:41:06.607Z,3.13
2018-12-01T11:43:35.017Z,3.30
2018-12-01T11:46:03.437Z,3.30
2018-12-01T11:48:31.883Z,3.53
2018-12-01T11:51:00.305Z,3.10
2018-12-01T11:53:28.817Z,2.97
2018-12-01T11:55:57.548Z,2.83
2018-12-01T11:58:26.264Z,2.87
2018-12-01T12:00:58.031Z,3.17
2018-12-01T12:03:26.799Z,3.43
2018-12-01T12:05:55.378Z,4.40
2018-12-01T12:08:24.292Z,3.40
2018-12-01T12:10:52.924Z,2.63
2018-12-01T12:13:22.537Z,3.20
2018-12-01T12:15:51.035Z,4.10
2018-12-01T12:18:19.751Z,3.47
2018-12-01T12:20:48.159Z,2.90
2018-12-01T12:23:16.902Z,3.03
2018-12-01T12:25:45.214Z,3.43
2018-12-01T12:28:13.744Z,4.57
2018-12-01T12:30:42.236Z,3.80
2018-12-01T12:33:10.810Z,5.63
2018-12-01T12:35:39.250Z,4.00
2018-12-01T12:38:07.817Z,3.53
2018-12-01T12:40:36.260Z,2.90
2018-12-01T12:43:07.403Z,3.80
2018-12-01T12:45:35.967Z,3.20
2018-12-01T12:48:05.547Z,3.17
2018-12-01T12:50:34.075Z,3.40
2018-12-01T12:53:02.684Z,2.77
2018-12-01T12:55:31.119Z,3.83
2018-12-01T12:57:59.560Z,3.10
2018-12-01T13:00:28.121Z,2.73
2018-12-01T13:02:59.756Z,2.60
2018-12-01T13:05:29.680Z,2.60
2018-12-01T13:07:58.240Z,2.70
2018-12-01T13:10:26.975Z,2.40
2018-12-01T13:12:55.410Z,2.20
2018-12-01T13:15:24.669Z,2.60
2018-12-01T13:17:54.082Z,2.93
2018-12-01T13:20:23.848Z,2.67
2018-12-01T13:22:57.847Z,2.27
2018-12-01T13:25:26.281Z,2.67
2018-12-01T13:27:58.177Z,1.93
2018-12-01T13:30:28.445Z,2.40
2018-12-01T13:32:56.867Z,1.90
2018-12-01T13:35:25.374Z,1.70
2018-12-01T13:37:53.822Z,1.73
2018-12-01T13:40:22.250Z,2.30
2018-12-01T13:42:50.663Z,2.40
2018-12-01T13:45:19.141Z,1.93
2018-12-01T13:47:48.893Z,2.30
2018-12-01T13:50:19.283Z,1.87
2018-12-01T13:52:55.934Z,1.83
2018-12-01T13:55:24.396Z,1.80
2018-12-01T13:57:52.775Z,2.10
2018-12-01T14:00:22.408Z,2.30
2018-12-01T14:02:50.827Z,2.30
2018-12-01T14:05:19.200Z,2.10
2018-12-01T14:07:47.660Z,2.23
2018-12-01T14:10:17.941Z,2.60
2018-12-01T14:12:47.485Z,3.10
2018-12-01T14:15:19.711Z,2.47
2018-12-01T14:17:48.742Z,2.87
2018-12-01T14:20:17.578Z,2.80
2018-12-01T14:22:46.867Z,3.10
2018-12-01T14:25:16.210Z,3.60
2018-12-01T14:27:47.915Z,4.17
2018-12-01T14:30:17.011Z,4.17
2018-12-01T14:32:46.002Z,4.60
2018-12-01T14:35:16.782Z,5.13
2018-12-01T14:37:46.761Z,4.10
2018-12-01T14:40:15.394Z,4.00
2018-12-01T14:42:44.377Z,3.70
2018-12-01T14:45:15.116Z,4.20
2018-12-01T14:47:43.843Z,4.90
2018-12-01T14:50:13.407Z,5.57
2018-12-01T14:52:42.314Z,4.40
2018-12-01T14:55:12.662Z,4.80
2018-12-01T14:57:41.276Z,5.03
2018-12-01T15:00:17.470Z,4.50
2018-12-01T15:02:45.981Z,4.67
2018-12-01T15:05:14.595Z,5.53
2018-12-01T15:07:43.026Z,5.70
2018-12-01T15:10:14.398Z,7.10
2018-12-01T15:12:42.783Z,5.50
2018-12-01T15:15:12.258Z,5.37
2018-12-01T15:17:40.724Z,3.97
2018-12-01T15:20:12.430Z,5.17
2018-12-01T15:22:40.969Z,5.47
2018-12-01T15:25:13.482Z,5.77
2018-12-01T15:30:17.183Z,4.50
2018-12-01T15:32:47.056Z,5.40
2018-12-01T15:35:15.622Z,4.57
2018-12-01T15:37:44.491Z,5.30
2018-12-01T15:40:14.852Z,4.50
2018-12-01T15:42:43.258Z,3.73
2018-12-01T15:45:14.707Z,4.30
2018-12-01T15:47:43.135Z,4.10
2018-12-01T15:50:16.394Z,4.50
2018-12-01T15:52:48.774Z,4.03
2018-12-01T15:55:17.346Z,4.00
2018-12-01T15:57:45.874Z,5.03
2018-12-01T16:00:17.578Z,4.50
2018-12-01T16:02:45.967Z,4.50
2018-12-01T16:05:15.425Z,5.97
2018-12-01T16:07:44.119Z,5.70
2018-12-01T16:10:17.651Z,10.63
2018-12-01T16:12:47.275Z,5.10
2018-12-01T16:15:33.767Z,11.63
2018-12-01T16:18:02.211Z,8.00
2018-12-01T16:20:30.607Z,7.07
2018-12-01T16:22:58.984Z,8.60
2018-12-01T16:25:28.163Z,8.20
2018-12-01T16:27:56.556Z,11.00
2018-12-01T16:30:31.752Z,8.00
2018-12-01T16:33:05.167Z,6.90
2018-12-01T16:35:33.555Z,6.43
2018-12-01T16:38:02.270Z,6.70
2018-12-01T16:40:43.367Z,7.17
2018-12-01T16:43:12.659Z,5.83
2018-12-01T16:45:41.499Z,5.43
2018-12-01T16:48:09.854Z,4.87
2018-12-01T16:50:38.182Z,5.60
2018-12-01T16:53:08.477Z,6.20
2018-12-01T16:55:37.233Z,5.83
2018-12-01T16:58:05.796Z,5.07
2018-12-01T17:00:34.188Z,5.37
2018-12-01T17:03:02.542Z,5.20
2018-12-01T17:05:32.704Z,5.23
2018-12-01T17:08:01.083Z,5.73
2018-12-01T17:10:29.486Z,4.80
2018-12-01T17:12:58.439Z,5.67
2018-12-01T17:15:26.550Z,5.87
2018-12-01T17:17:54.917Z,4.90
2018-12-01T17:20:23.270Z,4.93
2018-12-01T17:22:57.752Z,4.67
2018-12-01T17:25:26.546Z,5.53
2018-12-01T17:27:55.973Z,6.03
2018-12-01T17:30:25.479Z,4.37
2018-12-01T17:32:54.310Z,4.60
2018-12-01T17:35:24.235Z,3.83
2018-12-01T17:37:53.596Z,4.10
2018-12-01T17:41:34.432Z,4.07
2018-12-01T17:44:05.994Z,3.80
2018-12-01T17:46:34.396Z,3.53
2018-12-01T17:49:02.806Z,3.70
2018-12-01T17:51:31.261Z,3.40
2018-12-01T17:54:03.215Z,3.67
2018-12-01T17:56:31.586Z,3.90
2018-12-01T17:59:00.004Z,3.50
2018-12-01T18:01:28.416Z,3.80
2018-12-01T18:03:56.815Z,4.13
2018-12-01T18:06:25.249Z,2.43
2018-12-01T18:08:53.642Z,3.10
2018-12-01T18:11:22.022Z,3.70
2018-12-01T18:13:50.444Z,3.67
2018-12-01T18:16:18.852Z,4.73
2018-12-01T18:18:47.276Z,4.63
2018-12-01T18:21:15.671Z,3.97
2018-12-01T18:23:44.058Z,3.53
2018-12-01T18:26:12.502Z,3.90
2018-12-01T18:28:43.339Z,3.57
2018-12-01T18:31:20.747Z,3.50
2018-12-01T18:33:54.650Z,3.67
2018-12-01T18:36:23.369Z,3.67
2018-12-01T18:38:52.136Z,3.87
2018-12-01T18:41:20.564Z,3.40
2018-12-01T18:43:49.050Z,4.37
2018-12-01T18:46:17.570Z,4.00
2018-12-01T18:48:46.577Z,4.13
2018-12-01T18:51:15.059Z,3.90
2018-12-01T18:53:43.554Z,3.90
2018-12-01T18:56:11.956Z,2.93
2018-12-01T18:58:40.345Z,3.80
2018-12-01T19:01:23.538Z,3.73
2018-12-01T19:03:51.979Z,3.77
2018-12-01T19:06:21.975Z,4.30
2018-12-01T19:08:50.975Z,5.30
2018-12-01T19:11:19.737Z,4.57
2018-12-01T19:13:48.503Z,4.60
2018-12-01T19:16:16.901Z,3.70
2018-12-01T19:18:45.527Z,3.93
2018-12-01T19:21:14.276Z,4.73
2018-12-01T19:23:43.926Z,4.80
2018-12-01T19:26:14.079Z,4.50
2018-12-01T19:28:43.208Z,5.50
2018-12-01T19:31:12.900Z,4.10
2018-12-01T19:33:42.345Z,4.20
2018-12-01T19:36:10.766Z,5.40
2018-12-01T19:38:47.044Z,4.90
2018-12-01T19:41:15.667Z,4.50
2018-12-01T19:43:44.627Z,4.70
2018-12-01T19:46:13.297Z,5.17
2018-12-01T19:48:41.948Z,5.20
2018-12-01T19:51:10.716Z,4.50
2018-12-01T19:53:48.696Z,4.93
2018-12-01T19:56:17.370Z,4.77
2018-12-01T19:58:47.068Z,4.83
2018-12-01T20:01:15.773Z,4.40
2018-12-01T20:03:53.210Z,4.40
2018-12-01T20:06:21.888Z,4.50
2018-12-01T20:08:50.574Z,4.70
2018-12-01T20:11:19.268Z,4.43
2018-12-01T20:13:49.316Z,4.23
2018-12-01T20:16:35.010Z,4.20
2018-12-01T20:19:03.977Z,4.40
2018-12-01T20:21:34.445Z,3.40
2018-12-01T20:24:05.769Z,3.60
2018-12-01T20:26:34.924Z,3.90
2018-12-01T20:29:04.418Z,3.80
2018-12-01T20:31:33.485Z,3.60
2018-12-01T20:34:25.981Z,3.77
2018-12-01T20:37:09.599Z,3.70
2018-12-01T20:39:44.164Z,3.93
2018-12-01T20:42:13.027Z,4.50
2018-12-01T20:44:41.868Z,4.50
2018-12-01T20:47:10.618Z,3.93
2018-12-01T20:49:39.283Z,4.07
2018-12-01T20:52:07.932Z,3.07
2018-12-01T20:54:40.273Z,3.30
2018-12-01T20:57:12.083Z,3.40
2018-12-01T20:59:40.985Z,3.27
2018-12-01T21:02:10.395Z,3.27
2018-12-01T21:04:40.512Z,3.53
2018-12-01T21:07:09.273Z,3.17
2018-12-01T21:09:37.986Z,3.37
2018-12-01T21:12:08.011Z,3.13
2018-12-01T21:14:36.742Z,6.40
2018-12-01T21:17:05.669Z,4.00
2018-12-01T21:19:34.475Z,3.93
2018-12-01T21:22:03.165Z,3.30
2018-12-01T21:24:31.801Z,3.63
2018-12-01T21:27:00.665Z,3.77
2018-12-01T21:29:32.237Z,3.20
2018-12-01T21:32:01.056Z,4.30
2018-12-01T21:34:30.857Z,4.27
2018-12-01T21:36:59.748Z,3.90
2018-12-01T21:39:28.798Z,4.00
2018-12-01T21:42:00.821Z,2.87
2018-12-01T21:44:30.188Z,3.43
2018-12-01T21:46:58.970Z,2.77
2018-12-01T21:49:27.906Z,3.00
2018-12-01T21:51:56.698Z,3.10
2018-12-01T21:54:25.091Z,3.07
2018-12-01T21:56:53.906Z,2.67
2018-12-01T21:59:22.632Z,2.70
2018-12-01T22:01:51.304Z,2.60
2018-12-01T22:04:20.046Z,3.00
2018-12-01T22:06:48.408Z,2.53
2018-12-01T22:09:17.058Z,2.67
2018-12-01T22:11:45.446Z,2.50
2018-12-01T22:14:13.867Z,2.33
2018-12-01T22:16:42.434Z,3.60
2018-12-01T22:19:10.954Z,3.10
2018-12-01T22:21:39.493Z,4.30
2018-12-01T22:24:08.488Z,5.57
2018-12-01T22:26:36.944Z,5.97
2018-12-01T22:29:05.620Z,3.53
2018-12-01T22:31:34.091Z,3.10
2018-12-01T22:34:02.500Z,2.33
2018-12-01T22:36:30.963Z,2.20
2018-12-01T22:38:59.393Z,2.30
2018-12-01T22:41:27.895Z,2.50
2018-12-01T22:43:56.435Z,2.10
2018-12-01T22:46:24.878Z,2.30
2018-12-01T22:48:53.313Z,2.40
2018-12-01T22:51:21.665Z,2.53
2018-12-01T22:53:50.130Z,2.10
2018-12-01T22:56:18.530Z,1.70
2018-12-01T22:58:46.929Z,2.00
2018-12-01T23:01:15.337Z,1.77
2018-12-01T23:03:43.826Z,1.57
2018-12-01T23:06:12.277Z,1.83
2018-12-01T23:08:40.666Z,2.10
2018-12-01T23:11:09.043Z,2.00
2018-12-01T23:13:37.415Z,2.00
2018-12-01T23:16:05.831Z,1.47
2018-12-01T23:18:34.216Z,2.10
2018-12-01T23:21:02.635Z,1.90
2018-12-01T23:23:31.053Z,2.13
2018-12-01T23:25:59.407Z,1.90
2018-12-01T23:28:27.840Z,2.00
2018-12-01T23:30:56.519Z,1.70
2018-12-01T23:33:26.197Z,1.80
2018-12-01T23:35:54.718Z,2.10
2018-12-01T23:38:23.124Z,1.73
2018-12-01T23:40:51.581Z,2.30
2018-12-01T23:43:20.022Z,1.93
2018-12-01T23:45:48.458Z,2.53
2018-12-01T23:48:16.869Z,2.13
2018-12-01T23:50:55.259Z,2.00
2018-12-01T23:53:24.769Z,1.57
2018-12-01T23:55:53.219Z,1.90
2018-12-01T23:58:21.787Z,2.63
